sensor_id;sensor_type;location;lat;lon;timestamp;P1;durP1;ratioP1;P2;durP2;ratioP2
71696;SDS011;59528;59.082;37.926;2022-07-03T00:01:18;5.03;;;4.00;;
71696;SDS011;59528;59.082;37.926;2022-07-03T00:03:44;6.83;;;3.80;;
71696;SDS011;59528;59.082;37.926;2022-07-03T00:06:09;5.50;;;3.90;;
71696;SDS011;59528;59.082;37.926;2022-07-03T00:08:35;4.20;;;3.80;;
71696;SDS011;59528;59.082;37.926;2022-07-03T00:11:01;6.47;;;4.20;;
71696;SDS011;59528;59.082;37.926;2022-07-03T00:13:27;5.07;;;3.90;;
71696;SDS011;59528;59.082;37.926;2022-07-03T00:15:53;6.63;;;4.30;;
71696;SDS011;59528;59.082;37.926;2022-07-03T00:18:18;4.33;;;4.00;;
71696;SDS011;59528;59.082;37.926;2022-07-03T00:20:54;4.80;;;3.93;;
71696;SDS011;59528;59.082;37.926;2022-07-03T00:23:21;4.07;;;3.70;;
71696;SDS011;59528;59.082;37.926;2022-07-03T00:25:47;6.40;;;3.83;;
71696;SDS011;59528;59.082;37.926;2022-07-03T00:28:14;4.57;;;3.73;;
71696;SDS011;59528;59.082;37.926;2022-07-03T00:30:40;5.20;;;3.90;;
71696;SDS011;59528;59.082;37.926;2022-07-03T00:33:05;6.87;;;4.10;;
71696;SDS011;59528;59.082;37.926;2022-07-03T00:35:35;4.73;;;3.80;;
71696;SDS011;59528;59.082;37.926;2022-07-03T00:38:01;7.07;;;4.13;;
71696;SDS011;59528;59.082;37.926;2022-07-03T00:40:27;4.93;;;3.80;;
71696;SDS011;59528;59.082;37.926;2022-07-03T00:42:53;5.33;;;3.90;;
71696;SDS011;59528;59.082;37.926;2022-07-03T00:45:20;4.07;;;3.67;;
71696;SDS011;59528;59.082;37.926;2022-07-03T00:47:45;4.47;;;3.60;;
71696;SDS011;59528;59.082;37.926;2022-07-03T00:50:11;8.67;;;4.20;;
71696;SDS011;59528;59.082;37.926;2022-07-03T00:52:37;7.23;;;4.07;;
71696;SDS011;59528;59.082;37.926;2022-07-03T00:55:06;5.23;;;3.77;;
71696;SDS011;59528;59.082;37.926;2022-07-03T00:57:32;4.73;;;4.03;;
71696;SDS011;59528;59.082;37.926;2022-07-03T00:59:59;7.07;;;3.73;;
71696;SDS011;59528;59.082;37.926;2022-07-03T01:02:38;10.33;;;3.90;;
71696;SDS011;59528;59.082;37.926;2022-07-03T01:07:48;5.20;;;3.97;;
71696;SDS011;59528;59.082;37.926;2022-07-03T01:10:21;7.90;;;3.63;;
71696;SDS011;59528;59.082;37.926;2022-07-03T01:15:29;3.73;;;3.43;;
71696;SDS011;59528;59.082;37.926;2022-07-03T01:20:36;6.50;;;3.53;;
71696;SDS011;59528;59.082;37.926;2022-07-03T01:23:03;6.03;;;3.87;;
71696;SDS011;59528;59.082;37.926;2022-07-03T01:25:39;5.23;;;3.50;;
71696;SDS011;59528;59.082;37.926;2022-07-03T01:30:31;5.37;;;3.80;;
71696;SDS011;59528;59.082;37.926;2022-07-03T01:32:58;6.50;;;4.20;;
71696;SDS011;59528;59.082;37.926;2022-07-03T01:35:26;4.40;;;4.00;;
71696;SDS011;59528;59.082;37.926;2022-07-03T01:37:52;4.00;;;3.60;;
71696;SDS011;59528;59.082;37.926;2022-07-03T01:40:19;9.03;;;3.77;;
71696;SDS011;59528;59.082;37.926;2022-07-03T01:42:47;7.50;;;3.63;;
71696;SDS011;59528;59.082;37.926;2022-07-03T01:45:14;4.63;;;3.80;;
71696;SDS011;59528;59.082;37.926;2022-07-03T01:47:41;7.03;;;3.60;;
71696;SDS011;59528;59.082;37.926;2022-07-03T01:50:10;6.27;;;4.23;;
71696;SDS011;59528;59.082;37.926;2022-07-03T01:52:36;5.70;;;3.97;;
71696;SDS011;59528;59.082;37.926;2022-07-03T01:55:02;4.67;;;4.20;;
71696;SDS011;59528;59.082;37.926;2022-07-03T01:57:35;6.23;;;3.80;;
71696;SDS011;59528;59.082;37.926;2022-07-03T02:00:02;6.50;;;3.57;;
71696;SDS011;59528;59.082;37.926;2022-07-03T02:02:40;4.70;;;4.00;;
71696;SDS011;59528;59.082;37.926;2022-07-03T02:05:17;7.40;;;4.03;;
71696;SDS011;59528;59.082;37.926;2022-07-03T02:08:00;5.63;;;3.60;;
71696;SDS011;59528;59.082;37.926;2022-07-03T02:10:29;5.00;;;3.50;;
71696;SDS011;59528;59.082;37.926;2022-07-03T02:12:59;8.00;;;3.90;;
71696;SDS011;59528;59.082;37.926;2022-07-03T02:15:35;5.27;;;3.90;;
71696;SDS011;59528;59.082;37.926;2022-07-03T02:18:11;5.07;;;4.03;;
71696;SDS011;59528;59.082;37.926;2022-07-03T02:20:42;6.60;;;4.10;;
71696;SDS011;59528;59.082;37.926;2022-07-03T02:23:10;5.47;;;3.53;;
71696;SDS011;59528;59.082;37.926;2022-07-03T02:25:36;5.03;;;4.00;;
71696;SDS011;59528;59.082;37.926;2022-07-03T02:30:27;6.20;;;4.03;;
71696;SDS011;59528;59.082;37.926;2022-07-03T02:32:53;4.67;;;3.93;;
71696;SDS011;59528;59.082;37.926;2022-07-03T02:35:29;7.27;;;4.17;;
71696;SDS011;59528;59.082;37.926;2022-07-03T02:45:55;10.73;;;4.10;;
71696;SDS011;59528;59.082;37.926;2022-07-03T02:48:33;7.80;;;4.10;;
71696;SDS011;59528;59.082;37.926;2022-07-03T02:51:02;7.27;;;4.00;;
71696;SDS011;59528;59.082;37.926;2022-07-03T02:53:33;4.57;;;4.10;;
71696;SDS011;59528;59.082;37.926;2022-07-03T02:56:05;5.63;;;4.10;;
71696;SDS011;59528;59.082;37.926;2022-07-03T02:58:39;5.27;;;4.10;;
71696;SDS011;59528;59.082;37.926;2022-07-03T03:03:32;7.50;;;4.20;;
71696;SDS011;59528;59.082;37.926;2022-07-03T03:06:20;5.73;;;4.27;;
71696;SDS011;59528;59.082;37.926;2022-07-03T03:08:51;6.17;;;4.20;;
71696;SDS011;59528;59.082;37.926;2022-07-03T03:11:24;5.13;;;4.07;;
71696;SDS011;59528;59.082;37.926;2022-07-03T03:13:55;8.97;;;4.00;;
71696;SDS011;59528;59.082;37.926;2022-07-03T03:16:23;5.80;;;3.77;;
71696;SDS011;59528;59.082;37.926;2022-07-03T03:18:49;6.03;;;4.27;;
71696;SDS011;59528;59.082;37.926;2022-07-03T03:21:18;5.30;;;4.73;;
71696;SDS011;59528;59.082;37.926;2022-07-03T03:26:20;10.57;;;5.70;;
71696;SDS011;59528;59.082;37.926;2022-07-03T03:28:47;10.40;;;7.47;;
71696;SDS011;59528;59.082;37.926;2022-07-03T03:31:13;9.27;;;6.70;;
71696;SDS011;59528;59.082;37.926;2022-07-03T03:33:39;10.47;;;7.50;;
71696;SDS011;59528;59.082;37.926;2022-07-03T03:36:05;10.97;;;6.23;;
71696;SDS011;59528;59.082;37.926;2022-07-03T03:38:32;10.93;;;6.07;;
71696;SDS011;59528;59.082;37.926;2022-07-03T03:40:57;11.90;;;5.30;;
71696;SDS011;59528;59.082;37.926;2022-07-03T03:43:24;5.53;;;4.73;;
71696;SDS011;59528;59.082;37.926;2022-07-03T03:45:49;5.67;;;5.03;;
71696;SDS011;59528;59.082;37.926;2022-07-03T03:48:17;5.20;;;4.30;;
71696;SDS011;59528;59.082;37.926;2022-07-03T03:50:43;6.50;;;4.83;;
71696;SDS011;59528;59.082;37.926;2022-07-03T03:53:10;4.20;;;3.80;;
71696;SDS011;59528;59.082;37.926;2022-07-03T03:55:35;6.60;;;3.80;;
71696;SDS011;59528;59.082;37.926;2022-07-03T03:58:01;8.17;;;3.80;;
71696;SDS011;59528;59.082;37.926;2022-07-03T04:00:27;5.10;;;3.80;;
71696;SDS011;59528;59.082;37.926;2022-07-03T04:02:52;8.37;;;4.63;;
71696;SDS011;59528;59.082;37.926;2022-07-03T04:05:19;7.30;;;4.20;;
71696;SDS011;59528;59.082;37.926;2022-07-03T04:07:44;7.40;;;4.57;;
71696;SDS011;59528;59.082;37.926;2022-07-03T04:10:10;8.87;;;4.57;;
71696;SDS011;59528;59.082;37.926;2022-07-03T04:12:36;8.00;;;4.37;;
71696;SDS011;59528;59.082;37.926;2022-07-03T04:15:02;12.00;;;7.70;;
71696;SDS011;59528;59.082;37.926;2022-07-03T04:17:27;6.23;;;4.27;;
71696;SDS011;59528;59.082;37.926;2022-07-03T04:19:53;7.13;;;4.77;;
71696;SDS011;59528;59.082;37.926;2022-07-03T04:22:18;5.53;;;4.27;;
71696;SDS011;59528;59.082;37.926;2022-07-03T04:24:44;4.90;;;4.10;;
71696;SDS011;59528;59.082;37.926;2022-07-03T04:27:10;9.07;;;4.67;;
71696;SDS011;59528;59.082;37.926;2022-07-03T04:29:35;8.60;;;4.70;;
71696;SDS011;59528;59.082;37.926;2022-07-03T04:32:01;7.30;;;6.00;;
71696;SDS011;59528;59.082;37.926;2022-07-03T04:34:26;4.67;;;4.27;;
71696;SDS011;59528;59.082;37.926;2022-07-03T04:36:52;6.23;;;5.40;;
71696;SDS011;59528;59.082;37.926;2022-07-03T04:39:17;5.20;;;4.70;;
71696;SDS011;59528;59.082;37.926;2022-07-03T04:41:43;5.10;;;4.70;;
71696;SDS011;59528;59.082;37.926;2022-07-03T04:44:08;9.33;;;6.47;;
71696;SDS011;59528;59.082;37.926;2022-07-03T04:46:34;6.23;;;5.27;;
71696;SDS011;59528;59.082;37.926;2022-07-03T04:49:00;6.53;;;5.07;;
71696;SDS011;59528;59.082;37.926;2022-07-03T04:51:26;8.90;;;5.10;;
71696;SDS011;59528;59.082;37.926;2022-07-03T04:53:51;9.10;;;4.60;;
71696;SDS011;59528;59.082;37.926;2022-07-03T04:56:17;5.83;;;4.83;;
71696;SDS011;59528;59.082;37.926;2022-07-03T04:58:45;9.47;;;5.30;;
71696;SDS011;59528;59.082;37.926;2022-07-03T05:01:11;8.43;;;5.53;;
71696;SDS011;59528;59.082;37.926;2022-07-03T05:03:36;10.90;;;5.53;;
71696;SDS011;59528;59.082;37.926;2022-07-03T05:06:02;8.23;;;5.07;;
71696;SDS011;59528;59.082;37.926;2022-07-03T05:08:28;6.03;;;5.17;;
71696;SDS011;59528;59.082;37.926;2022-07-03T05:10:53;11.23;;;5.50;;
71696;SDS011;59528;59.082;37.926;2022-07-03T05:13:19;8.97;;;5.50;;
71696;SDS011;59528;59.082;37.926;2022-07-03T05:15:45;12.93;;;5.70;;
71696;SDS011;59528;59.082;37.926;2022-07-03T05:18:10;6.77;;;5.00;;
71696;SDS011;59528;59.082;37.926;2022-07-03T05:20:36;10.47;;;5.13;;
71696;SDS011;59528;59.082;37.926;2022-07-03T05:23:02;7.13;;;4.87;;
71696;SDS011;59528;59.082;37.926;2022-07-03T05:25:28;10.10;;;5.30;;
71696;SDS011;59528;59.082;37.926;2022-07-03T05:27:55;9.53;;;5.13;;
71696;SDS011;59528;59.082;37.926;2022-07-03T05:30:21;10.27;;;6.07;;
71696;SDS011;59528;59.082;37.926;2022-07-03T05:32:50;7.03;;;4.60;;
71696;SDS011;59528;59.082;37.926;2022-07-03T05:35:15;8.23;;;5.03;;
71696;SDS011;59528;59.082;37.926;2022-07-03T05:37:41;10.60;;;5.07;;
71696;SDS011;59528;59.082;37.926;2022-07-03T05:40:07;7.07;;;4.80;;
71696;SDS011;59528;59.082;37.926;2022-07-03T05:42:33;7.17;;;4.70;;
71696;SDS011;59528;59.082;37.926;2022-07-03T05:44:59;8.27;;;4.60;;
71696;SDS011;59528;59.082;37.926;2022-07-03T05:47:25;7.27;;;4.60;;
71696;SDS011;59528;59.082;37.926;2022-07-03T05:49:51;7.97;;;4.30;;
71696;SDS011;59528;59.082;37.926;2022-07-03T05:52:16;5.60;;;4.53;;
71696;SDS011;59528;59.082;37.926;2022-07-03T05:54:42;6.90;;;3.80;;
71696;SDS011;59528;59.082;37.926;2022-07-03T05:57:08;7.50;;;4.07;;
71696;SDS011;59528;59.082;37.926;2022-07-03T05:59:33;6.67;;;4.20;;
71696;SDS011;59528;59.082;37.926;2022-07-03T06:01:59;7.20;;;4.70;;
71696;SDS011;59528;59.082;37.926;2022-07-03T06:04:24;5.50;;;4.30;;
71696;SDS011;59528;59.082;37.926;2022-07-03T06:06:50;5.60;;;4.30;;
71696;SDS011;59528;59.082;37.926;2022-07-03T06:09:16;5.83;;;4.07;;
71696;SDS011;59528;59.082;37.926;2022-07-03T06:11:42;6.40;;;4.07;;
71696;SDS011;59528;59.082;37.926;2022-07-03T06:14:08;4.87;;;4.00;;
71696;SDS011;59528;59.082;37.926;2022-07-03T06:16:34;4.63;;;4.13;;
71696;SDS011;59528;59.082;37.926;2022-07-03T06:19:00;5.30;;;4.40;;
71696;SDS011;59528;59.082;37.926;2022-07-03T06:21:25;6.40;;;4.20;;
71696;SDS011;59528;59.082;37.926;2022-07-03T06:23:51;5.03;;;4.10;;
71696;SDS011;59528;59.082;37.926;2022-07-03T06:26:16;6.10;;;4.00;;
71696;SDS011;59528;59.082;37.926;2022-07-03T06:28:42;8.23;;;4.10;;
71696;SDS011;59528;59.082;37.926;2022-07-03T06:31:08;6.73;;;4.30;;
71696;SDS011;59528;59.082;37.926;2022-07-03T06:33:34;5.53;;;4.07;;
71696;SDS011;59528;59.082;37.926;2022-07-03T06:35:59;4.80;;;3.90;;
71696;SDS011;59528;59.082;37.926;2022-07-03T06:38:25;7.83;;;4.00;;
71696;SDS011;59528;59.082;37.926;2022-07-03T06:40:50;4.83;;;3.67;;
71696;SDS011;59528;59.082;37.926;2022-07-03T06:43:17;5.77;;;3.97;;
71696;SDS011;59528;59.082;37.926;2022-07-03T06:45:43;6.57;;;4.10;;
71696;SDS011;59528;59.082;37.926;2022-07-03T06:48:08;5.13;;;4.00;;
71696;SDS011;59528;59.082;37.926;2022-07-03T06:50:34;7.07;;;3.67;;
71696;SDS011;59528;59.082;37.926;2022-07-03T06:52:59;4.60;;;4.10;;
71696;SDS011;59528;59.082;37.926;2022-07-03T06:55:26;5.33;;;4.03;;
71696;SDS011;59528;59.082;37.926;2022-07-03T06:57:51;5.70;;;4.10;;
71696;SDS011;59528;59.082;37.926;2022-07-03T07:00:17;4.90;;;4.40;;
71696;SDS011;59528;59.082;37.926;2022-07-03T07:02:42;6.30;;;4.87;;
71696;SDS011;59528;59.082;37.926;2022-07-03T07:05:08;5.67;;;4.97;;
71696;SDS011;59528;59.082;37.926;2022-07-03T07:07:34;6.00;;;4.40;;
71696;SDS011;59528;59.082;37.926;2022-07-03T07:09:59;6.03;;;4.60;;
71696;SDS011;59528;59.082;37.926;2022-07-03T07:12:25;9.93;;;6.00;;
71696;SDS011;59528;59.082;37.926;2022-07-03T07:14:50;7.83;;;5.50;;
71696;SDS011;59528;59.082;37.926;2022-07-03T07:17:17;5.90;;;4.90;;
71696;SDS011;59528;59.082;37.926;2022-07-03T07:19:43;6.60;;;4.00;;
71696;SDS011;59528;59.082;37.926;2022-07-03T07:22:08;4.77;;;3.90;;
71696;SDS011;59528;59.082;37.926;2022-07-03T07:24:34;5.57;;;3.60;;
71696;SDS011;59528;59.082;37.926;2022-07-03T07:26:59;3.70;;;3.17;;
71696;SDS011;59528;59.082;37.926;2022-07-03T07:29:25;4.87;;;3.40;;
71696;SDS011;59528;59.082;37.926;2022-07-03T07:31:51;3.37;;;3.07;;
71696;SDS011;59528;59.082;37.926;2022-07-03T07:34:16;5.87;;;3.40;;
71696;SDS011;59528;59.082;37.926;2022-07-03T07:36:42;3.60;;;3.30;;
71696;SDS011;59528;59.082;37.926;2022-07-03T07:39:07;4.97;;;3.40;;
71696;SDS011;59528;59.082;37.926;2022-07-03T07:41:35;5.63;;;3.33;;
71696;SDS011;59528;59.082;37.926;2022-07-03T07:44:01;5.93;;;3.77;;
71696;SDS011;59528;59.082;37.926;2022-07-03T07:46:26;6.47;;;3.80;;
71696;SDS011;59528;59.082;37.926;2022-07-03T07:48:52;4.00;;;3.30;;
71696;SDS011;59528;59.082;37.926;2022-07-03T07:51:18;4.67;;;3.40;;
71696;SDS011;59528;59.082;37.926;2022-07-03T07:53:44;6.43;;;3.40;;
71696;SDS011;59528;59.082;37.926;2022-07-03T07:56:12;5.63;;;3.00;;
71696;SDS011;59528;59.082;37.926;2022-07-03T07:58:37;4.33;;;3.20;;
71696;SDS011;59528;59.082;37.926;2022-07-03T08:01:03;3.73;;;2.80;;
71696;SDS011;59528;59.082;37.926;2022-07-03T08:03:47;3.20;;;2.90;;
71696;SDS011;59528;59.082;37.926;2022-07-03T08:06:31;4.70;;;3.30;;
71696;SDS011;59528;59.082;37.926;2022-07-03T08:08:57;3.47;;;3.17;;
71696;SDS011;59528;59.082;37.926;2022-07-03T08:11:22;3.20;;;2.90;;
71696;SDS011;59528;59.082;37.926;2022-07-03T08:13:48;3.77;;;2.90;;
71696;SDS011;59528;59.082;37.926;2022-07-03T08:16:13;4.70;;;2.73;;
71696;SDS011;59528;59.082;37.926;2022-07-03T08:18:39;3.30;;;3.00;;
71696;SDS011;59528;59.082;37.926;2022-07-03T08:21:05;3.10;;;2.90;;
71696;SDS011;59528;59.082;37.926;2022-07-03T08:23:33;5.73;;;2.70;;
71696;SDS011;59528;59.082;37.926;2022-07-03T08:25:58;4.57;;;3.13;;
71696;SDS011;59528;59.082;37.926;2022-07-03T08:28:24;4.57;;;3.20;;
71696;SDS011;59528;59.082;37.926;2022-07-03T08:30:50;3.90;;;3.13;;
71696;SDS011;59528;59.082;37.926;2022-07-03T08:33:15;3.47;;;2.97;;
71696;SDS011;59528;59.082;37.926;2022-07-03T08:35:40;3.43;;;2.80;;
71696;SDS011;59528;59.082;37.926;2022-07-03T08:38:06;6.57;;;3.03;;
71696;SDS011;59528;59.082;37.926;2022-07-03T08:40:32;3.40;;;3.10;;
71696;SDS011;59528;59.082;37.926;2022-07-03T08:42:58;4.10;;;2.83;;
71696;SDS011;59528;59.082;37.926;2022-07-03T08:45:26;7.60;;;3.00;;
71696;SDS011;59528;59.082;37.926;2022-07-03T08:47:56;7.50;;;2.97;;
71696;SDS011;59528;59.082;37.926;2022-07-03T08:50:22;3.83;;;3.27;;
71696;SDS011;59528;59.082;37.926;2022-07-03T08:52:48;7.20;;;3.43;;
71696;SDS011;59528;59.082;37.926;2022-07-03T08:55:14;7.37;;;3.00;;
71696;SDS011;59528;59.082;37.926;2022-07-03T08:57:44;8.07;;;3.50;;
71696;SDS011;59528;59.082;37.926;2022-07-03T09:00:10;4.00;;;3.40;;
71696;SDS011;59528;59.082;37.926;2022-07-03T09:02:37;6.93;;;3.70;;
71696;SDS011;59528;59.082;37.926;2022-07-03T09:05:04;5.50;;;3.33;;
71696;SDS011;59528;59.082;37.926;2022-07-03T09:07:34;4.77;;;3.60;;
71696;SDS011;59528;59.082;37.926;2022-07-03T09:09:59;5.07;;;3.37;;
71696;SDS011;59528;59.082;37.926;2022-07-03T09:12:29;5.73;;;3.30;;
71696;SDS011;59528;59.082;37.926;2022-07-03T09:14:55;9.43;;;3.97;;
71696;SDS011;59528;59.082;37.926;2022-07-03T09:17:21;5.73;;;3.50;;
71696;SDS011;59528;59.082;37.926;2022-07-03T09:19:47;5.17;;;3.80;;
71696;SDS011;59528;59.082;37.926;2022-07-03T09:22:32;7.47;;;4.60;;
71696;SDS011;59528;59.082;37.926;2022-07-03T09:25:08;6.10;;;3.80;;
71696;SDS011;59528;59.082;37.926;2022-07-03T09:27:37;6.40;;;4.20;;
71696;SDS011;59528;59.082;37.926;2022-07-03T09:30:07;3.50;;;3.20;;
71696;SDS011;59528;59.082;37.926;2022-07-03T09:32:47;4.50;;;3.03;;
71696;SDS011;59528;59.082;37.926;2022-07-03T09:35:20;3.87;;;2.93;;
71696;SDS011;59528;59.082;37.926;2022-07-03T09:37:55;3.77;;;2.80;;
71696;SDS011;59528;59.082;37.926;2022-07-03T09:40:25;7.80;;;6.70;;
71696;SDS011;59528;59.082;37.926;2022-07-03T09:45:23;4.33;;;3.47;;
71696;SDS011;59528;59.082;37.926;2022-07-03T09:47:49;7.17;;;3.57;;
71696;SDS011;59528;59.082;37.926;2022-07-03T09:50:14;3.83;;;3.40;;
71696;SDS011;59528;59.082;37.926;2022-07-03T09:57:36;3.93;;;2.87;;
71696;SDS011;59528;59.082;37.926;2022-07-03T10:00:18;6.40;;;3.50;;
71696;SDS011;59528;59.082;37.926;2022-07-03T10:03:26;3.47;;;3.10;;
71696;SDS011;59528;59.082;37.926;2022-07-03T10:05:35;2.97;;;2.67;;
71696;SDS011;59528;59.082;37.926;2022-07-03T10:10:28;3.05;;;2.80;;
71696;SDS011;59528;59.082;37.926;2022-07-03T10:12:55;6.28;;;3.30;;
71696;SDS011;59528;59.082;37.926;2022-07-03T10:15:21;3.00;;;2.80;;
71696;SDS011;59528;59.082;37.926;2022-07-03T10:17:48;5.47;;;2.88;;
71696;SDS011;59528;59.082;37.926;2022-07-03T10:20:16;9.10;;;5.93;;
71696;SDS011;59528;59.082;37.926;2022-07-03T10:22:45;8.63;;;5.30;;
71696;SDS011;59528;59.082;37.926;2022-07-03T10:25:13;4.13;;;3.70;;
71696;SDS011;59528;59.082;37.926;2022-07-03T10:27:38;5.82;;;3.70;;
71696;SDS011;59528;59.082;37.926;2022-07-03T10:30:04;4.07;;;3.58;;
71696;SDS011;59528;59.082;37.926;2022-07-03T10:32:31;4.18;;;2.80;;
71696;SDS011;59528;59.082;37.926;2022-07-03T10:34:58;5.15;;;2.85;;
71696;SDS011;59528;59.082;37.926;2022-07-03T10:37:23;6.45;;;3.30;;
71696;SDS011;59528;59.082;37.926;2022-07-03T10:40:03;4.80;;;2.90;;
71696;SDS011;59528;59.082;37.926;2022-07-03T10:42:50;5.18;;;3.08;;
71696;SDS011;59528;59.082;37.926;2022-07-03T10:45:35;5.65;;;3.00;;
71696;SDS011;59528;59.082;37.926;2022-07-03T10:48:01;5.70;;;2.80;;
71696;SDS011;59528;59.082;37.926;2022-07-03T10:50:26;4.10;;;3.15;;
71696;SDS011;59528;59.082;37.926;2022-07-03T10:52:52;6.00;;;3.10;;
71696;SDS011;59528;59.082;37.926;2022-07-03T10:55:18;5.88;;;2.80;;
71696;SDS011;59528;59.082;37.926;2022-07-03T10:58:05;4.78;;;2.60;;
71696;SDS011;59528;59.082;37.926;2022-07-03T11:00:31;5.07;;;2.88;;
71696;SDS011;59528;59.082;37.926;2022-07-03T11:03:17;3.97;;;2.22;;
71696;SDS011;59528;59.082;37.926;2022-07-03T11:06:01;6.53;;;2.90;;
71696;SDS011;59528;59.082;37.926;2022-07-03T11:08:27;4.10;;;2.50;;
71696;SDS011;59528;59.082;37.926;2022-07-03T11:10:52;3.03;;;2.50;;
71696;SDS011;59528;59.082;37.926;2022-07-03T11:13:38;5.22;;;2.63;;
71696;SDS011;59528;59.082;37.926;2022-07-03T11:16:23;3.80;;;2.15;;
71696;SDS011;59528;59.082;37.926;2022-07-03T11:18:56;3.33;;;2.70;;
71696;SDS011;59528;59.082;37.926;2022-07-03T11:21:25;3.20;;;2.50;;
71696;SDS011;59528;59.082;37.926;2022-07-03T11:24:52;4.35;;;2.60;;
71696;SDS011;59528;59.082;37.926;2022-07-03T11:26:47;4.88;;;2.50;;
71696;SDS011;59528;59.082;37.926;2022-07-03T11:29:35;4.57;;;2.30;;
71696;SDS011;59528;59.082;37.926;2022-07-03T11:32:25;4.43;;;2.55;;
71696;SDS011;59528;59.082;37.926;2022-07-03T11:34:56;3.72;;;2.10;;
71696;SDS011;59528;59.082;37.926;2022-07-03T11:37:22;4.30;;;3.25;;
71696;SDS011;59528;59.082;37.926;2022-07-03T11:39:48;6.55;;;3.65;;
71696;SDS011;59528;59.082;37.926;2022-07-03T11:42:17;5.07;;;3.38;;
71696;SDS011;59528;59.082;37.926;2022-07-03T11:44:44;4.68;;;2.88;;
71696;SDS011;59528;59.082;37.926;2022-07-03T11:47:09;6.80;;;2.92;;
71696;SDS011;59528;59.082;37.926;2022-07-03T11:49:35;5.32;;;3.50;;
71696;SDS011;59528;59.082;37.926;2022-07-03T11:52:03;3.67;;;2.72;;
71696;SDS011;59528;59.082;37.926;2022-07-03T11:54:32;3.03;;;2.60;;
71696;SDS011;59528;59.082;37.926;2022-07-03T11:56:59;4.75;;;3.20;;
71696;SDS011;59528;59.082;37.926;2022-07-03T11:59:24;4.28;;;2.95;;
71696;SDS011;59528;59.082;37.926;2022-07-03T12:01:50;5.78;;;3.05;;
71696;SDS011;59528;59.082;37.926;2022-07-03T12:04:18;3.78;;;2.72;;
71696;SDS011;59528;59.082;37.926;2022-07-03T12:09:16;3.72;;;2.70;;
71696;SDS011;59528;59.082;37.926;2022-07-03T12:11:53;3.50;;;2.50;;
71696;SDS011;59528;59.082;37.926;2022-07-03T12:14:32;3.72;;;2.40;;
71696;SDS011;59528;59.082;37.926;2022-07-03T12:16:58;5.38;;;2.35;;
71696;SDS011;59528;59.082;37.926;2022-07-03T12:19:23;3.58;;;2.17;;
71696;SDS011;59528;59.082;37.926;2022-07-03T12:21:49;3.30;;;3.00;;
71696;SDS011;59528;59.082;37.926;2022-07-03T12:24:14;2.58;;;2.30;;
71696;SDS011;59528;59.082;37.926;2022-07-03T12:26:43;5.25;;;2.67;;
71696;SDS011;59528;59.082;37.926;2022-07-03T12:29:09;3.55;;;2.47;;
71696;SDS011;59528;59.082;37.926;2022-07-03T12:31:35;4.35;;;2.55;;
71696;SDS011;59528;59.082;37.926;2022-07-03T12:34:03;5.05;;;2.40;;
71696;SDS011;59528;59.082;37.926;2022-07-03T12:36:29;2.42;;;2.22;;
71696;SDS011;59528;59.082;37.926;2022-07-03T12:38:55;4.10;;;2.60;;
71696;SDS011;59528;59.082;37.926;2022-07-03T12:41:22;2.88;;;2.13;;
71696;SDS011;59528;59.082;37.926;2022-07-03T12:43:48;7.47;;;2.30;;
71696;SDS011;59528;59.082;37.926;2022-07-03T12:48:49;4.82;;;2.20;;
71696;SDS011;59528;59.082;37.926;2022-07-03T12:51:16;2.45;;;2.20;;
71696;SDS011;59528;59.082;37.926;2022-07-03T12:53:42;2.95;;;2.20;;
71696;SDS011;59528;59.082;37.926;2022-07-03T12:56:08;2.55;;;2.35;;
71696;SDS011;59528;59.082;37.926;2022-07-03T12:58:35;2.55;;;2.00;;
71696;SDS011;59528;59.082;37.926;2022-07-03T13:01:31;3.00;;;1.95;;
71696;SDS011;59528;59.082;37.926;2022-07-03T13:04:02;3.10;;;2.10;;
71696;SDS011;59528;59.082;37.926;2022-07-03T13:06:28;2.05;;;1.85;;
71696;SDS011;59528;59.082;37.926;2022-07-03T13:09:00;4.40;;;2.17;;
71696;SDS011;59528;59.082;37.926;2022-07-03T13:11:37;3.58;;;2.15;;
71696;SDS011;59528;59.082;37.926;2022-07-03T13:16:35;4.10;;;2.05;;
71696;SDS011;59528;59.082;37.926;2022-07-03T13:19:01;8.93;;;2.78;;
71696;SDS011;59528;59.082;37.926;2022-07-03T13:21:29;5.32;;;2.47;;
71696;SDS011;59528;59.082;37.926;2022-07-03T13:23:55;6.55;;;2.38;;
71696;SDS011;59528;59.082;37.926;2022-07-03T13:26:21;2.35;;;2.15;;
71696;SDS011;59528;59.082;37.926;2022-07-03T13:28:47;2.63;;;2.25;;
71696;SDS011;59528;59.082;37.926;2022-07-03T13:31:12;3.55;;;2.10;;
71696;SDS011;59528;59.082;37.926;2022-07-03T13:33:38;2.67;;;2.38;;
71696;SDS011;59528;59.082;37.926;2022-07-03T13:36:04;7.00;;;2.20;;
71696;SDS011;59528;59.082;37.926;2022-07-03T13:38:29;3.55;;;2.40;;
71696;SDS011;59528;59.082;37.926;2022-07-03T13:40:55;3.97;;;2.13;;
71696;SDS011;59528;59.082;37.926;2022-07-03T13:43:23;2.22;;;2.03;;
71696;SDS011;59528;59.082;37.926;2022-07-03T13:45:49;2.50;;;2.30;;
71696;SDS011;59528;59.082;37.926;2022-07-03T13:48:15;2.78;;;2.20;;
71696;SDS011;59528;59.082;37.926;2022-07-03T13:50:41;2.35;;;2.13;;
71696;SDS011;59528;59.082;37.926;2022-07-03T13:53:07;2.38;;;2.10;;
71696;SDS011;59528;59.082;37.926;2022-07-03T13:55:32;2.50;;;2.30;;
71696;SDS011;59528;59.082;37.926;2022-07-03T13:57:58;5.63;;;2.30;;
71696;SDS011;59528;59.082;37.926;2022-07-03T14:00:24;3.92;;;2.35;;
71696;SDS011;59528;59.082;37.926;2022-07-03T14:02:49;3.00;;;2.38;;
71696;SDS011;59528;59.082;37.926;2022-07-03T14:05:15;3.03;;;2.72;;
71696;SDS011;59528;59.082;37.926;2022-07-03T14:07:40;5.55;;;2.15;;
71696;SDS011;59528;59.082;37.926;2022-07-03T14:10:06;2.50;;;2.30;;
71696;SDS011;59528;59.082;37.926;2022-07-03T14:12:32;4.00;;;2.70;;
71696;SDS011;59528;59.082;37.926;2022-07-03T14:14:57;4.45;;;2.50;;
71696;SDS011;59528;59.082;37.926;2022-07-03T14:17:24;2.28;;;2.10;;
71696;SDS011;59528;59.082;37.926;2022-07-03T14:19:52;2.50;;;2.28;;
71696;SDS011;59528;59.082;37.926;2022-07-03T14:22:18;6.43;;;3.00;;
71696;SDS011;59528;59.082;37.926;2022-07-03T14:24:43;3.13;;;2.72;;
71696;SDS011;59528;59.082;37.926;2022-07-03T14:27:09;5.63;;;5.03;;
71696;SDS011;59528;59.082;37.926;2022-07-03T14:29:53;3.55;;;2.65;;
71696;SDS011;59528;59.082;37.926;2022-07-03T14:32:37;4.15;;;2.95;;
71696;SDS011;59528;59.082;37.926;2022-07-03T14:35:03;3.90;;;3.08;;
71696;SDS011;59528;59.082;37.926;2022-07-03T14:37:29;3.67;;;2.92;;
71696;SDS011;59528;59.082;37.926;2022-07-03T14:39:55;3.90;;;3.47;;
71696;SDS011;59528;59.082;37.926;2022-07-03T14:42:21;4.03;;;2.72;;
71696;SDS011;59528;59.082;37.926;2022-07-03T14:44:46;5.93;;;3.08;;
71696;SDS011;59528;59.082;37.926;2022-07-03T14:47:12;4.88;;;2.92;;
71696;SDS011;59528;59.082;37.926;2022-07-03T14:49:38;3.60;;;2.97;;
71696;SDS011;59528;59.082;37.926;2022-07-03T14:52:04;4.43;;;3.30;;
71696;SDS011;59528;59.082;37.926;2022-07-03T14:54:30;3.65;;;3.15;;
71696;SDS011;59528;59.082;37.926;2022-07-03T14:57:02;5.25;;;3.75;;
71696;SDS011;59528;59.082;37.926;2022-07-03T15:01:57;3.50;;;3.20;;
71696;SDS011;59528;59.082;37.926;2022-07-03T15:05:24;3.55;;;3.20;;
71696;SDS011;59528;59.082;37.926;2022-07-03T15:07:20;7.97;;;3.30;;
71696;SDS011;59528;59.082;37.926;2022-07-03T15:09:54;5.75;;;3.10;;
71696;SDS011;59528;59.082;37.926;2022-07-03T15:12:24;3.47;;;3.20;;
71696;SDS011;59528;59.082;37.926;2022-07-03T15:14:53;4.53;;;3.53;;
71696;SDS011;59528;59.082;37.926;2022-07-03T15:17:22;5.03;;;3.25;;
71696;SDS011;59528;59.082;37.926;2022-07-03T15:19:48;5.07;;;3.30;;
71696;SDS011;59528;59.082;37.926;2022-07-03T15:22:15;5.05;;;3.45;;
71696;SDS011;59528;59.082;37.926;2022-07-03T15:24:41;3.28;;;2.97;;